La Belle Poule — FBPU — position and weather

sailwx.info

Track history (hours):
 
Tides and Currents Weather Stations Pressure Air Temp Water Temp Dewpoint Dewpoint Depression Visibility Wind Speed Wind Dir Waves Ship Positions

La Belle Poule (France)

Ship's website: http://www.defense.gouv.fr/english/portail-defense

Last reported at 2019-Dec-04 12:00 UTC. Time now 2019-Dec-06 05:24 UTC.
Position N 48°23' W 004°30'.

Length 37 m; draft 3.6 m.

Type: Sailing vessel. MMSI: 228796000.

Date/timePositionNaut miles runAvg speedWind from/ knotsBaromVisibWave heightAir tempDewpointWater temp
2019-Dec-04 12:00N 48°23' W 004°30'6 2.5
2019-Dec-04 09:31N 48°19' W 004°37'0 0.4
2019-Dec-04 08:31N 48°19' W 004°37'  
2019-Nov-29 15:04N 48°23' W 004°30'0 0.3
2019-Nov-29 14:00N 48°23' W 004°30'3 1.4
2019-Nov-29 12:00N 48°20' W 004°27'0 0.0
2019-Nov-29 11:31N 48°20' W 004°27'1 0.6
2019-Nov-29 09:31N 48°19' W 004°28'3 1.3
2019-Nov-29 07:30N 48°18' W 004°25'1 1.6
2019-Nov-29 07:01N 48°18' W 004°25'0 0.3
2019-Nov-29 06:30N 48°17' W 004°25'0 0.0
2019-Nov-29 05:00N 48°17' W 004°25'0 0.0
2019-Nov-29 04:31N 48°17' W 004°25'0 0.0
2019-Nov-29 03:30N 48°17' W 004°25'0 0.0
2019-Nov-29 02:30N 48°17' W 004°25'0 0.0
2019-Nov-29 02:00N 48°17' W 004°25'0 0.0
2019-Nov-29 00:30N 48°17' W 004°25'0 0.0
2019-Nov-28 21:31N 48°17' W 004°25'0 0.0
2019-Nov-28 20:00N 48°17' W 004°25'0 0.0
2019-Nov-28 19:30N 48°17' W 004°25'0 0.0
2019-Nov-28 19:00N 48°17' W 004°25'0 0.0
2019-Nov-28 18:00N 48°17' W 004°25'0 0.0
2019-Nov-28 16:30N 48°17' W 004°25'0 0.4
2019-Nov-28 16:00N 48°18' W 004°25'1 0.7
2019-Nov-28 14:31N 48°19' W 004°24'1 2.5
2019-Nov-28 14:00N 48°18' W 004°26'2 4.8
2019-Nov-28 13:30N 48°20' W 004°28'3 0.6
2019-Nov-28 07:31N 48°23' W 004°30'0 0.0
2019-Nov-26 14:30N 48°22' W 004°30'5 3.6
2019-Nov-26 13:01N 48°18' W 004°26'3 1.2
2019-Nov-26 10:31N 48°20' W 004°28'2 1.6
2019-Nov-26 09:00N 48°22' W 004°30'1 0.4
2019-Nov-26 07:31N 48°23' W 004°30'  
Track history (hours):
 
Tides and Currents Weather Stations Pressure Air Temp Water Temp Dewpoint Dewpoint Depression Visibility Wind Speed Wind Dir Waves Ship Positions

La Belle Poule (France)

Ship's website: http://www.defense.gouv.fr/english/portail-defense

Last reported at 2019-Dec-04 12:00 UTC. Time now 2019-Dec-06 05:24 UTC.
Position N 48°23' W 004°30'.

Length 37 m; draft 3.6 m.

Type: Sailing vessel. MMSI: 228796000.

Date/timePositionNaut miles runAvg speedWind from/ knotsBaromVisibWave heightAir tempDewpointWater temp
2019-Dec-04 12:00N 48°23' W 004°30'6 2.5
2019-Dec-04 09:31N 48°19' W 004°37'0 0.4
2019-Dec-04 08:31N 48°19' W 004°37'  
2019-Nov-29 15:04N 48°23' W 004°30'0 0.3
2019-Nov-29 14:00N 48°23' W 004°30'3 1.4
2019-Nov-29 12:00N 48°20' W 004°27'0 0.0
2019-Nov-29 11:31N 48°20' W 004°27'1 0.6
2019-Nov-29 09:31N 48°19' W 004°28'3 1.3
2019-Nov-29 07:30N 48°18' W 004°25'1 1.6
2019-Nov-29 07:01N 48°18' W 004°25'0 0.3
2019-Nov-29 06:30N 48°17' W 004°25'0 0.0
2019-Nov-29 05:00N 48°17' W 004°25'0 0.0
2019-Nov-29 04:31N 48°17' W 004°25'0 0.0
2019-Nov-29 03:30N 48°17' W 004°25'0 0.0
2019-Nov-29 02:30N 48°17' W 004°25'0 0.0
2019-Nov-29 02:00N 48°17' W 004°25'0 0.0
2019-Nov-29 00:30N 48°17' W 004°25'0 0.0
2019-Nov-28 21:31N 48°17' W 004°25'0 0.0
2019-Nov-28 20:00N 48°17' W 004°25'0 0.0
2019-Nov-28 19:30N 48°17' W 004°25'0 0.0
2019-Nov-28 19:00N 48°17' W 004°25'0 0.0
2019-Nov-28 18:00N 48°17' W 004°25'0 0.0
2019-Nov-28 16:30N 48°17' W 004°25'0 0.4
2019-Nov-28 16:00N 48°18' W 004°25'1 0.7
2019-Nov-28 14:31N 48°19' W 004°24'1 2.5
2019-Nov-28 14:00N 48°18' W 004°26'2 4.8
2019-Nov-28 13:30N 48°20' W 004°28'3 0.6
2019-Nov-28 07:31N 48°23' W 004°30'0 0.0
2019-Nov-26 14:30N 48°22' W 004°30'5 3.6
2019-Nov-26 13:01N 48°18' W 004°26'3 1.2
2019-Nov-26 10:31N 48°20' W 004°28'2 1.6
2019-Nov-26 09:00N 48°22' W 004°30'1 0.4
2019-Nov-26 07:31N 48°23' W 004°30'  

Dump ship's entire track history